createdAt,value
2019-02-08T00:01:23.117Z,7.00
2019-02-08T00:04:03.715Z,6.90
2019-02-08T00:06:44.424Z,6.90
2019-02-08T00:09:24.838Z,6.90
2019-02-08T00:12:05.859Z,6.90
2019-02-08T00:14:46.517Z,6.90
2019-02-08T00:17:27.496Z,6.90
2019-02-08T00:20:08.942Z,6.90
2019-02-08T00:22:49.965Z,6.90
2019-02-08T00:25:30.852Z,6.90
2019-02-08T00:31:31.325Z,6.90
2019-02-08T00:34:11.903Z,6.90
2019-02-08T00:36:52.681Z,6.90
2019-02-08T00:39:33.362Z,6.90
2019-02-08T00:42:13.913Z,6.90
2019-02-08T00:44:55.188Z,6.90
2019-02-08T00:47:35.829Z,6.90
2019-02-08T00:53:21.930Z,6.90
2019-02-08T00:56:02.561Z,6.90
2019-02-08T00:58:43.177Z,6.90
2019-02-08T01:01:23.725Z,6.90
2019-02-08T01:07:23.662Z,6.90
2019-02-08T01:10:03.983Z,6.90
2019-02-08T01:12:44.450Z,6.90
2019-02-08T01:15:25.493Z,6.90
2019-02-08T01:18:06.281Z,6.90
2019-02-08T01:20:47.066Z,6.90
2019-02-08T01:23:27.970Z,6.90
2019-02-08T01:26:08.583Z,6.90
2019-02-08T01:28:49.291Z,6.90
2019-02-08T01:31:29.725Z,6.90
2019-02-08T01:34:10.350Z,6.90
2019-02-08T01:36:51.310Z,6.90
2019-02-08T01:39:32.096Z,6.80
2019-02-08T01:42:12.878Z,6.80
2019-02-08T01:44:53.634Z,6.80
2019-02-08T01:47:34.570Z,6.80
2019-02-08T01:50:15.124Z,6.80
2019-02-08T01:52:43.694Z,6.80
2019-02-08T01:55:31.578Z,6.80
2019-02-08T01:58:19.500Z,6.80
2019-02-08T02:01:07.560Z,6.80
2019-02-08T02:03:55.357Z,6.70
2019-02-08T02:06:43.252Z,6.70
2019-02-08T02:09:31.197Z,6.70
2019-02-08T02:12:19.092Z,6.70
2019-02-08T02:15:27.630Z,6.70
2019-02-08T02:18:15.535Z,6.70
2019-02-08T02:21:03.473Z,6.70
2019-02-08T02:23:56.019Z,6.70
2019-02-08T02:26:40.829Z,6.60
2019-02-08T02:29:28.638Z,6.60
2019-02-08T02:32:16.535Z,6.70
2019-02-08T02:35:25.141Z,6.60
2019-02-08T02:38:13.113Z,6.60
2019-02-08T02:41:00.978Z,6.60
2019-02-08T02:43:48.874Z,6.60
2019-02-08T02:46:36.696Z,6.60
2019-02-08T02:49:24.577Z,6.60
2019-02-08T02:52:12.682Z,6.50
2019-02-08T02:55:00.550Z,6.50
2019-02-08T02:57:48.448Z,6.50
2019-02-08T03:00:56.969Z,6.50
2019-02-08T03:03:44.801Z,6.50
2019-02-08T03:06:32.668Z,6.60
2019-02-08T03:09:12.940Z,6.60
2019-02-08T03:11:54.089Z,6.60
2019-02-08T03:14:34.657Z,6.60
2019-02-08T03:17:15.561Z,6.50
2019-02-08T03:19:56.119Z,6.50
2019-02-08T03:22:36.985Z,6.60
2019-02-08T03:25:17.762Z,6.50
2019-02-08T03:27:58.273Z,6.60
2019-02-08T03:33:46.760Z,6.60
2019-02-08T03:36:27.257Z,6.60
2019-02-08T03:39:07.674Z,6.60
2019-02-08T03:41:48.357Z,6.50
2019-02-08T03:44:29.071Z,6.50
2019-02-08T03:47:09.718Z,6.50
2019-02-08T03:49:50.941Z,6.50
2019-02-08T03:52:31.522Z,6.50
2019-02-08T03:55:11.989Z,6.50
2019-02-08T03:57:52.495Z,6.50
2019-02-08T04:00:52.241Z,6.50
2019-02-08T04:03:32.617Z,6.50
2019-02-08T04:06:12.871Z,6.60
2019-02-08T04:08:53.426Z,6.50
2019-02-08T04:11:34.291Z,6.60
2019-02-08T04:14:14.956Z,6.60
2019-02-08T04:16:55.697Z,6.60
2019-02-08T04:19:36.457Z,6.50
2019-02-08T04:22:05.066Z,6.50
2019-02-08T04:24:52.969Z,6.50
2019-02-08T04:27:40.866Z,6.50
2019-02-08T04:30:49.482Z,6.50
2019-02-08T04:33:37.382Z,6.40
2019-02-08T04:36:25.253Z,6.40
2019-02-08T04:39:13.221Z,6.40
2019-02-08T04:42:01.100Z,6.30
2019-02-08T04:44:48.994Z,6.30
2019-02-08T04:47:36.991Z,6.30
2019-02-08T04:50:25.618Z,6.20
2019-02-08T04:53:13.526Z,6.20
2019-02-08T04:56:01.417Z,6.20
2019-02-08T04:58:49.309Z,6.20
2019-02-08T05:01:37.185Z,6.20
2019-02-08T05:04:25.004Z,6.20
2019-02-08T05:07:12.881Z,6.20
2019-02-08T05:10:00.774Z,6.20
2019-02-08T05:12:49.036Z,6.20
2019-02-08T05:15:36.841Z,6.20
2019-02-08T05:18:24.735Z,6.20
2019-02-08T05:21:12.617Z,6.20
2019-02-08T05:24:00.444Z,6.20
2019-02-08T05:26:48.428Z,6.20
2019-02-08T05:29:36.321Z,6.20
2019-02-08T05:32:24.128Z,6.20
2019-02-08T05:35:12.123Z,6.30
2019-02-08T05:38:00.066Z,6.30
2019-02-08T05:40:47.961Z,6.30
2019-02-08T05:43:35.864Z,6.30
2019-02-08T05:46:23.732Z,6.40
2019-02-08T05:49:11.629Z,6.40
2019-02-08T05:51:59.578Z,6.40
2019-02-08T05:54:54.247Z,6.40
2019-02-08T05:57:36.935Z,6.40
2019-02-08T06:00:45.792Z,6.40
2019-02-08T06:03:33.753Z,6.40
2019-02-08T06:06:21.638Z,6.40
2019-02-08T06:09:03.115Z,6.40
2019-02-08T06:11:44.405Z,6.40
2019-02-08T06:14:25.119Z,6.40
2019-02-08T06:17:05.854Z,6.40
2019-02-08T06:19:46.706Z,6.30
2019-02-08T06:22:27.155Z,6.30
2019-02-08T06:25:07.795Z,6.30
2019-02-08T06:27:36.329Z,6.30
2019-02-08T06:30:25.107Z,6.30
2019-02-08T06:33:12.973Z,6.30
2019-02-08T06:36:00.878Z,6.30
2019-02-08T06:38:48.777Z,6.30
2019-02-08T06:41:36.650Z,6.20
2019-02-08T06:44:24.556Z,6.20
2019-02-08T06:47:12.422Z,6.20
2019-02-08T06:50:00.394Z,6.20
2019-02-08T06:52:48.271Z,6.20
2019-02-08T06:55:36.230Z,6.20
2019-02-08T07:04:50.102Z,6.30
2019-02-08T07:11:07.923Z,6.30
2019-02-08T07:13:50.435Z,6.30
2019-02-08T07:16:37.480Z,6.30
2019-02-08T07:22:13.350Z,6.40
2019-02-08T07:28:07.233Z,6.40
2019-02-08T07:30:52.709Z,6.50
2019-02-08T07:33:53.052Z,6.50
2019-02-08T07:36:52.617Z,6.50
2019-02-08T07:39:34.623Z,6.50
2019-02-08T07:42:17.165Z,6.40
2019-02-08T07:44:59.917Z,6.40
2019-02-08T07:47:42.415Z,6.40
2019-02-08T07:53:35.942Z,6.40
2019-02-08T07:56:35.618Z,6.40
2019-02-08T07:59:18.385Z,6.40
2019-02-08T08:04:54.430Z,6.50
2019-02-08T08:07:37.166Z,6.50
2019-02-08T08:13:13.214Z,6.50
2019-02-08T08:15:55.488Z,6.60
2019-02-08T08:18:55.674Z,6.60
2019-02-08T08:24:48.925Z,6.60
2019-02-08T08:27:31.693Z,6.70
2019-02-08T08:30:14.197Z,6.80
2019-02-08T08:32:56.423Z,6.80
2019-02-08T08:35:37.102Z,6.90
2019-02-08T08:38:44.306Z,6.90
2019-02-08T08:41:51.522Z,6.90
2019-02-08T08:44:58.726Z,7.00
2019-02-08T08:48:05.946Z,7.00
2019-02-08T08:51:13.180Z,7.00
2019-02-08T08:54:20.370Z,7.10
2019-02-08T08:57:27.586Z,7.10
2019-02-08T09:00:36.187Z,7.10
2019-02-08T09:03:43.405Z,7.10
2019-02-08T09:06:50.628Z,7.10
2019-02-08T09:09:57.854Z,7.10
2019-02-08T09:13:05.078Z,7.20
2019-02-08T09:16:12.324Z,7.20
2019-02-08T09:19:19.530Z,7.20
2019-02-08T09:22:26.954Z,7.30
2019-02-08T09:25:35.554Z,7.30
2019-02-08T09:28:42.766Z,7.40
2019-02-08T09:31:49.921Z,7.40
2019-02-08T09:34:57.190Z,7.50
2019-02-08T09:38:05.814Z,7.50
2019-02-08T09:41:13.013Z,7.60
2019-02-08T09:44:00.529Z,7.70
2019-02-08T09:47:07.759Z,7.70
2019-02-08T09:50:14.957Z,7.70
2019-02-08T09:53:23.586Z,7.70
2019-02-08T09:56:30.783Z,7.70
2019-02-08T09:59:38.006Z,7.70
2019-02-08T10:02:46.629Z,7.80
2019-02-08T10:08:16.235Z,8.00
2019-02-08T10:10:56.689Z,8.00
2019-02-08T10:13:37.413Z,8.10
2019-02-08T10:16:18.360Z,8.10
2019-02-08T10:18:58.998Z,8.20
2019-02-08T10:21:39.737Z,8.20
2019-02-08T10:24:20.397Z,8.20
2019-02-08T10:27:01.199Z,8.20
2019-02-08T10:29:42.194Z,8.30
2019-02-08T10:32:22.782Z,8.30
2019-02-08T10:35:03.335Z,8.30
2019-02-08T10:37:43.975Z,8.40
2019-02-08T10:40:24.608Z,8.40
2019-02-08T10:43:05.062Z,8.40
2019-02-08T10:45:45.406Z,8.50
2019-02-08T10:48:25.974Z,8.50
2019-02-08T10:51:06.462Z,8.50
2019-02-08T10:53:53.006Z,8.50
2019-02-08T10:56:29.645Z,8.50
2019-02-08T10:59:10.615Z,8.50
2019-02-08T11:01:51.029Z,8.50
2019-02-08T11:04:31.426Z,8.40
2019-02-08T11:07:12.106Z,8.40
2019-02-08T11:09:52.830Z,8.40
2019-02-08T11:12:33.545Z,8.30
2019-02-08T11:15:14.114Z,8.40
2019-02-08T11:17:54.730Z,8.40
2019-02-08T11:20:36.100Z,8.40
2019-02-08T11:23:17.339Z,8.50
2019-02-08T11:25:58.062Z,8.50
2019-02-08T11:28:38.605Z,8.50
2019-02-08T11:31:19.147Z,8.50
2019-02-08T11:33:59.985Z,8.50
2019-02-08T11:36:40.999Z,8.50
2019-02-08T11:39:21.605Z,8.50
2019-02-08T11:42:02.669Z,8.50
2019-02-08T11:44:43.107Z,8.50
2019-02-08T11:47:23.590Z,8.60
2019-02-08T11:50:04.535Z,8.60
2019-02-08T11:52:45.130Z,8.60
2019-02-08T11:55:25.897Z,8.60
2019-02-08T11:58:06.361Z,8.60
2019-02-08T12:00:48.697Z,8.60
2019-02-08T12:03:29.623Z,8.60
2019-02-08T12:06:10.334Z,8.60
2019-02-08T12:08:50.951Z,8.70
2019-02-08T12:11:31.493Z,8.70
2019-02-08T12:14:12.240Z,8.80
2019-02-08T12:16:53.222Z,8.80
2019-02-08T12:19:34.505Z,8.90
2019-02-08T12:22:15.016Z,8.90
2019-02-08T12:24:55.621Z,9.00
2019-02-08T12:27:36.521Z,9.00
2019-02-08T12:30:17.293Z,9.10
2019-02-08T12:32:59.193Z,9.10
2019-02-08T12:35:40.565Z,9.10
2019-02-08T12:38:21.145Z,9.10
2019-02-08T12:41:09.501Z,9.10
2019-02-08T12:43:44.782Z,9.10
2019-02-08T12:46:25.698Z,9.10
2019-02-08T12:49:06.836Z,9.20
2019-02-08T12:51:47.786Z,9.20
2019-02-08T12:54:28.505Z,9.20
2019-02-08T12:57:09.266Z,9.20
2019-02-08T12:59:50.066Z,9.30
2019-02-08T13:02:30.814Z,9.30
2019-02-08T13:05:11.681Z,9.30
2019-02-08T13:07:52.294Z,9.30
2019-02-08T13:10:33.256Z,9.40
2019-02-08T13:13:13.716Z,9.30
2019-02-08T13:15:54.694Z,9.40
2019-02-08T13:18:35.342Z,9.30
2019-02-08T13:21:16.091Z,9.30
2019-02-08T13:23:56.551Z,9.30
2019-02-08T13:26:37.305Z,9.30
2019-02-08T13:29:18.020Z,9.30
2019-02-08T13:35:14.559Z,9.20
2019-02-08T13:37:55.606Z,9.20
2019-02-08T13:40:36.559Z,9.20
2019-02-08T13:43:17.134Z,9.20
2019-02-08T13:45:58.114Z,9.10
2019-02-08T13:48:38.649Z,9.10
2019-02-08T13:51:19.314Z,9.10
2019-02-08T13:53:59.785Z,9.10
2019-02-08T13:56:40.733Z,9.10
2019-02-08T13:59:21.293Z,9.10
2019-02-08T14:02:01.954Z,9.10
2019-02-08T14:04:42.693Z,9.00
2019-02-08T14:07:23.614Z,9.00
2019-02-08T14:10:04.155Z,9.00
2019-02-08T14:12:44.937Z,9.00
2019-02-08T14:15:25.702Z,8.90
2019-02-08T14:18:06.477Z,8.90
2019-02-08T14:20:47.125Z,8.90
2019-02-08T14:23:27.585Z,8.90
2019-02-08T14:26:08.294Z,8.90
2019-02-08T14:28:48.855Z,8.90
2019-02-08T14:31:29.571Z,8.90
2019-02-08T14:34:09.953Z,8.80
2019-02-08T14:36:50.821Z,8.80
2019-02-08T14:39:31.694Z,8.80
2019-02-08T14:42:12.330Z,8.70
2019-02-08T14:45:12.401Z,8.70
2019-02-08T14:47:53.594Z,8.70
2019-02-08T14:50:34.357Z,8.60
2019-02-08T14:53:15.641Z,8.60
2019-02-08T14:55:56.334Z,8.60
2019-02-08T14:58:37.036Z,8.60
2019-02-08T15:01:17.494Z,8.60
2019-02-08T15:03:57.958Z,8.50
2019-02-08T15:06:38.693Z,8.50
2019-02-08T15:09:20.202Z,8.50
2019-02-08T15:12:01.338Z,8.50
2019-02-08T15:14:41.730Z,8.50
2019-02-08T15:17:22.101Z,8.50
2019-02-08T15:20:02.855Z,8.50
2019-02-08T15:22:43.518Z,8.50
2019-02-08T15:25:24.061Z,8.50
2019-02-08T15:28:04.729Z,8.50
2019-02-08T15:30:45.197Z,8.50
2019-02-08T15:33:25.769Z,8.50
2019-02-08T15:36:06.209Z,8.50
2019-02-08T15:38:47.210Z,8.50
2019-02-08T15:41:28.043Z,8.50
2019-02-08T15:44:08.587Z,8.50
2019-02-08T15:46:49.034Z,8.50
2019-02-08T15:49:29.503Z,8.50
2019-02-08T15:52:10.172Z,8.60
2019-02-08T15:54:51.009Z,8.60
2019-02-08T15:57:32.464Z,8.60
2019-02-08T16:00:13.346Z,8.60
2019-02-08T16:02:54.000Z,8.60
2019-02-08T16:05:34.609Z,8.60
2019-02-08T16:08:03.160Z,8.60
2019-02-08T16:10:51.065Z,8.60
2019-02-08T16:13:38.951Z,8.60
2019-02-08T16:16:26.837Z,8.60
2019-02-08T16:19:14.746Z,8.60
2019-02-08T16:22:02.681Z,8.60
2019-02-08T16:24:50.581Z,8.60
2019-02-08T16:27:39.880Z,8.70
2019-02-08T16:30:48.722Z,8.70
2019-02-08T16:33:36.597Z,8.70
2019-02-08T16:36:24.493Z,8.70
2019-02-08T16:39:12.401Z,8.70
2019-02-08T16:44:49.125Z,8.70
2019-02-08T16:47:37.069Z,8.70
2019-02-08T16:50:45.621Z,8.70
2019-02-08T16:53:33.495Z,8.70
2019-02-08T16:56:21.408Z,8.70
2019-02-08T16:59:09.346Z,8.70
2019-02-08T17:01:57.310Z,8.70
2019-02-08T17:04:45.210Z,8.80
2019-02-08T17:07:33.085Z,8.70
2019-02-08T17:10:14.021Z,8.80
2019-02-08T17:12:54.925Z,8.80
2019-02-08T17:15:35.677Z,8.80
2019-02-08T17:18:16.287Z,8.80
2019-02-08T17:20:56.850Z,8.70
2019-02-08T17:23:37.597Z,8.80
2019-02-08T17:26:18.329Z,8.80
2019-02-08T17:28:59.254Z,8.70
2019-02-08T17:34:48.364Z,8.70
2019-02-08T17:37:28.793Z,8.80
2019-02-08T17:40:09.178Z,8.80
2019-02-08T17:42:49.665Z,8.70
2019-02-08T17:45:30.158Z,8.80
2019-02-08T17:48:10.609Z,8.80
2019-02-08T17:50:51.358Z,8.80
2019-02-08T17:53:31.857Z,8.80
2019-02-08T17:56:12.411Z,8.80
2019-02-08T17:58:52.950Z,8.80
2019-02-08T18:04:41.686Z,8.90
2019-02-08T18:07:22.273Z,8.90
2019-02-08T18:10:03.145Z,8.80
2019-02-08T18:12:43.953Z,8.90
2019-02-08T18:15:24.881Z,8.80
2019-02-08T18:18:05.901Z,8.90
2019-02-08T18:20:46.525Z,8.90
2019-02-08T18:23:27.289Z,8.80
2019-02-08T18:26:08.269Z,8.80
2019-02-08T18:28:49.262Z,8.80
2019-02-08T18:31:30.050Z,8.90
2019-02-08T18:34:10.697Z,8.90
2019-02-08T18:36:51.390Z,8.90
2019-02-08T18:39:32.383Z,8.80
2019-02-08T18:42:12.991Z,8.80
2019-02-08T18:44:53.940Z,8.80
2019-02-08T18:47:34.786Z,8.80
2019-02-08T18:50:15.214Z,8.80
2019-02-08T18:52:55.529Z,8.80
2019-02-08T18:55:36.037Z,8.80
2019-02-08T19:01:21.930Z,8.80
2019-02-08T19:04:03.160Z,8.80
2019-02-08T19:09:51.888Z,8.80
2019-02-08T19:12:32.538Z,8.80
2019-02-08T19:15:13.081Z,8.80
2019-02-08T19:17:53.735Z,8.80
2019-02-08T19:20:34.425Z,8.80
2019-02-08T19:23:15.398Z,8.80
2019-02-08T19:25:56.345Z,8.80
2019-02-08T19:28:37.501Z,8.80
2019-02-08T19:31:17.930Z,8.80
2019-02-08T19:33:58.946Z,8.80
2019-02-08T19:36:39.783Z,8.80
2019-02-08T19:39:20.405Z,8.80
2019-02-08T19:42:01.385Z,8.80
2019-02-08T19:44:42.032Z,8.80
2019-02-08T19:47:22.650Z,8.80
2019-02-08T19:50:03.112Z,8.80
2019-02-08T19:55:52.073Z,8.80
2019-02-08T19:58:34.669Z,8.80
2019-02-08T20:01:15.360Z,8.90
2019-02-08T20:03:56.083Z,8.90
2019-02-08T20:06:36.575Z,8.90
2019-02-08T20:09:17.953Z,8.90
2019-02-08T20:11:59.054Z,8.90
2019-02-08T20:14:39.855Z,8.90
2019-02-08T20:17:20.509Z,8.90
2019-02-08T20:20:01.197Z,8.90
2019-02-08T20:25:47.454Z,8.90
2019-02-08T20:28:27.908Z,8.90
2019-02-08T20:31:08.894Z,8.90
2019-02-08T20:36:55.221Z,8.90
2019-02-08T20:45:49.550Z,8.90
2019-02-08T20:48:30.050Z,8.90
2019-02-08T20:57:34.066Z,8.90
2019-02-08T21:00:14.791Z,8.90
2019-02-08T21:02:55.306Z,8.90
2019-02-08T21:05:36.530Z,8.90
2019-02-08T21:08:17.335Z,8.90
2019-02-08T21:10:58.247Z,8.90
2019-02-08T21:13:38.897Z,8.90
2019-02-08T21:16:19.335Z,8.90
2019-02-08T21:19:01.659Z,8.90
2019-02-08T21:21:42.746Z,8.90
2019-02-08T21:24:23.189Z,8.90
2019-02-08T21:26:51.724Z,8.90
2019-02-08T21:29:39.626Z,8.90
2019-02-08T21:32:27.502Z,8.90
2019-02-08T21:35:36.137Z,8.90
2019-02-08T21:38:24.019Z,8.90
2019-02-08T21:41:11.906Z,8.90
2019-02-08T21:43:59.709Z,8.90
2019-02-08T21:46:47.673Z,8.90
2019-02-08T21:49:35.568Z,8.90
2019-02-08T21:52:23.437Z,8.90
2019-02-08T21:55:31.987Z,8.90
2019-02-08T21:58:19.866Z,9.00
2019-02-08T22:01:07.765Z,8.90
2019-02-08T22:03:55.660Z,8.90
2019-02-08T22:06:43.553Z,8.90
2019-02-08T22:09:24.497Z,8.90
2019-02-08T22:12:05.014Z,8.90
2019-02-08T22:14:45.673Z,8.90
2019-02-08T22:17:26.736Z,8.90
2019-02-08T22:20:07.502Z,8.90
2019-02-08T22:22:48.225Z,8.90
2019-02-08T22:28:33.967Z,8.90
2019-02-08T22:31:14.755Z,8.90
2019-02-08T22:33:55.582Z,8.90
2019-02-08T22:36:36.268Z,8.90
2019-02-08T22:39:16.723Z,8.90
2019-02-08T22:41:57.389Z,8.90
2019-02-08T22:44:38.269Z,8.90
2019-02-08T22:47:19.070Z,8.90
2019-02-08T22:49:59.720Z,8.90
2019-02-08T22:52:40.788Z,8.90
2019-02-08T22:55:21.670Z,8.90
2019-02-08T22:58:02.181Z,8.90
2019-02-08T23:00:44.618Z,8.90
2019-02-08T23:03:24.967Z,8.90
2019-02-08T23:06:05.681Z,8.90
2019-02-08T23:08:46.498Z,8.90
2019-02-08T23:11:27.406Z,8.90
2019-02-08T23:14:08.037Z,8.90
2019-02-08T23:16:48.764Z,8.90
2019-02-08T23:19:29.765Z,8.90
2019-02-08T23:22:10.570Z,8.90
2019-02-08T23:24:51.341Z,8.90
2019-02-08T23:27:31.934Z,8.90
2019-02-08T23:30:12.753Z,8.80
2019-02-08T23:32:53.525Z,8.80
2019-02-08T23:35:34.193Z,8.70
2019-02-08T23:38:14.970Z,8.70
2019-02-08T23:40:55.819Z,8.70
2019-02-08T23:43:36.870Z,8.70
2019-02-08T23:46:17.661Z,8.70
2019-02-08T23:48:58.406Z,8.60
2019-02-08T23:51:42.126Z,8.60
2019-02-08T23:54:22.885Z,8.60
2019-02-08T23:57:04.105Z,8.60
2019-02-08T23:59:44.993Z,8.60
